Time,TemperatureF,DewpointF,PressureIn,WindDirection,WindDirectionDegrees,WindSpeedMPH,WindSpeedGustMPH,Humidity,HourlyPrecipIn,Conditions,Clouds,dailyrainin,SoftwareType,DateUTC
2013-10-02 00:14:00,63.0,61.0,29.85,WSW,244,0.0,-999.0,94,-99.99,,,-99.99,,2013-10-02 04:14:00,
2013-10-02 00:24:00,63.0,61.0,29.85,WSW,242,0.0,-999.0,93,-99.99,,,-99.99,,2013-10-02 04:24:00,
2013-10-02 00:54:00,63.0,61.0,29.86,WSW,243,0.0,-999.0,94,-99.99,,,-99.99,,2013-10-02 04:54:00,
2013-10-02 01:23:00,62.0,61.0,29.87,WSW,253,0.0,-999.0,95,-99.99,,,-99.99,,2013-10-02 05:23:00,
2013-10-02 01:53:00,62.0,61.0,29.87,SSW,198,0.0,-999.0,95,-99.99,,,-99.99,,2013-10-02 05:53:00,
2013-10-02 10:21:00,60.0,59.0,30.03,West,264,0.0,-999.0,98,-99.99,,,-99.99,,2013-10-02 14:21:00,
2013-10-02 10:42:00,61.0,60.0,30.03,West,264,0.0,-999.0,98,-99.99,,,-99.99,,2013-10-02 14:42:00,
2013-10-02 10:52:00,62.0,60.0,30.03,West,264,0.0,-999.0,92,-99.99,,,-99.99,,2013-10-02 14:52:00,
2013-10-02 11:11:00,64.0,57.0,30.03,West,264,0.0,-999.0,79,-99.99,,,-99.99,,2013-10-02 15:11:00,
2013-10-02 11:22:00,67.0,57.0,30.03,West,264,0.0,-999.0,71,-99.99,,,-99.99,,2013-10-02 15:22:00,
2013-10-02 11:54:00,70.0,53.0,30.03,West,264,0.0,-999.0,55,-99.99,,,-99.99,,2013-10-02 15:54:00,
2013-10-02 12:12:00,72.0,54.0,30.03,West,264,0.0,-999.0,53,-99.99,,,-99.99,,2013-10-02 16:12:00,
2013-10-02 12:23:00,73.0,51.0,30.04,NNE,24,0.0,-999.0,46,-99.99,,,-99.99,,2013-10-02 16:23:00,
2013-10-02 12:52:00,73.0,48.0,30.03,SSE,167,0.0,-999.0,41,-99.99,,,-99.99,,2013-10-02 16:52:00,
2013-10-02 13:12:00,73.0,47.0,30.03,ESE,103,0.0,-999.0,40,-99.99,,,-99.99,,2013-10-02 17:12:00,
2013-10-02 13:23:00,73.0,48.0,30.03,South,190,0.0,-999.0,41,-99.99,,,-99.99,,2013-10-02 17:23:00,
2013-10-02 13:42:00,75.0,46.0,30.03,ESE,103,0.0,-999.0,36,-99.99,,,-99.99,,2013-10-02 17:42:00,
2013-10-02 13:52:00,75.0,46.0,30.02,ENE,75,0.0,-999.0,36,-99.99,,,-99.99,,2013-10-02 17:52:00,
2013-10-02 14:12:00,76.0,46.0,30.02,SSE,148,0.0,-999.0,35,-99.99,,,-99.99,,2013-10-02 18:12:00,
2013-10-02 14:22:00,76.0,46.0,30.01,West,268,0.0,-999.0,34,-99.99,,,-99.99,,2013-10-02 18:22:00,
2013-10-02 15:11:00,78.0,43.0,30.00,WSW,239,1.0,-999.0,29,-99.99,,,-99.99,,2013-10-02 19:11:00,
2013-10-02 15:22:00,78.0,47.0,29.99,SW,229,0.0,-999.0,33,-99.99,,,-99.99,,2013-10-02 19:22:00,
2013-10-02 15:52:00,80.0,46.0,29.99,SW,221,0.0,-999.0,30,-99.99,,,-99.99,,2013-10-02 19:52:00,
2013-10-02 16:11:00,80.0,44.0,29.99,WSW,239,1.0,-999.0,28,-99.99,,,-99.99,,2013-10-02 20:11:00,
2013-10-02 16:22:00,79.0,47.0,29.99,NE,42,0.0,-999.0,32,-99.99,,,-99.99,,2013-10-02 20:22:00,
2013-10-02 16:52:00,78.0,46.0,29.99,WSW,256,0.0,-999.0,32,-99.99,,,-99.99,,2013-10-02 20:52:00,
2013-10-02 17:22:00,79.0,45.0,29.98,WSW,256,0.0,-999.0,30,-99.99,,,-99.99,,2013-10-02 21:22:00,
2013-10-02 17:54:00,78.0,45.0,29.98,WSW,256,0.0,-999.0,31,-99.99,,,-99.99,,2013-10-02 21:54:00,
2013-10-02 19:22:00,70.0,48.0,29.97,WSW,256,0.0,-999.0,45,-99.99,,,-99.99,,2013-10-02 23:22:00,
2013-10-02 19:52:00,66.0,48.0,29.97,WSW,256,0.0,-999.0,52,-99.99,,,-99.99,,2013-10-02 23:52:00,
2013-10-02 20:42:00,60.0,49.0,29.97,WSW,256,0.0,-999.0,67,-99.99,,,-99.99,,2013-10-03 00:42:00,
2013-10-02 20:52:00,59.0,51.0,29.97,WSW,256,0.0,-999.0,74,-99.99,,,-99.99,,2013-10-03 00:52:00,
2013-10-02 21:11:00,58.0,50.0,29.97,WSW,256,0.0,-999.0,74,-99.99,,,-99.99,,2013-10-03 01:11:00,
2013-10-02 21:23:00,57.0,51.0,29.98,WSW,256,0.0,-999.0,79,-99.99,,,-99.99,,2013-10-03 01:23:00,
2013-10-02 21:42:00,56.0,50.0,29.98,WSW,256,0.0,-999.0,80,-99.99,,,-99.99,,2013-10-03 01:42:00,
2013-10-02 21:52:00,55.0,50.0,29.98,WSW,256,0.0,-999.0,84,-99.99,,,-99.99,,2013-10-03 01:52:00,
2013-10-02 22:11:00,55.0,51.0,29.98,WSW,256,0.0,-999.0,86,-99.99,,,-99.99,,2013-10-03 02:11:00,
2013-10-02 22:22:00,54.0,50.0,29.98,WSW,256,0.0,-999.0,87,-99.99,,,-99.99,,2013-10-03 02:22:00,
2013-10-02 23:22:00,52.0,48.0,29.98,WSW,256,0.0,-999.0,85,-99.99,,,-99.99,,2013-10-03 03:22:00,
2013-10-02 23:44:00,52.0,49.0,29.98,WSW,256,0.0,-999.0,89,-99.99,,,-99.99,,2013-10-03 03:44:00,
2013-10-02 23:54:00,52.0,49.0,29.98,WSW,256,0.0,-999.0,90,-99.99,,,-99.99,,2013-10-03 03:54:00,